Choska, Oklahoma
Current Conditions -  °F | °C
As of 2:53 AM on Friday 24 Oct 2014 (Local Time) from KRVS Reporting Station
Haze Haze  
Wind Chill: 56°   Ceiling: Unl
Heat Index: 56°   Visibility: 6mi
Dew Point: 55°   Wind: 0mph
Humidity: 97%   Direction: NA
Pressure: 30.12"   Gusts: NA
Location:  35.977°N, 95.6229°W
Report Text: KRVS 240753Z AUTO 00000KT 6SM BR CLR 13/13 A3012 RMK AO2 SLP206 T01330128
Loading
Personal Weather Stations






























Interactive Weather Map
Tropical Storm Tracking
New forecast layout! Learn more

10-Day Weather Forecast

Advertisements
Track Severe Weather on mobile